Погода Нижнемитякинна неделю

Ростовская область, Россия

13 - 19 июля
  • 13июля
    Сегодня
    +17°
    +31°
    Ясно и безоблачно
    ВремяПогодаТемператураВлажностьДавлениеВетер, м/сВероятность осадков
    00:00Ясно и безоблачно+20°C35 %751 мм2.6 м/с2 %
    03:00Ясно и безоблачно+17°C43 %751 мм2.3 м/с2 %
    06:00Ясно и безоблачно+18°C43 %752 мм2.3 м/с2 %
    09:00Ясно и безоблачно+25°C30 %752 мм3.4 м/с2 %
    12:00Ясно и безоблачно+29°C23 %751 мм4.7 м/с2 %
    15:00Ясно и безоблачно+31°C22 %750 мм4.4 м/с2 %
    18:00Ясно и безоблачно+30°C23 %749 мм4.5 м/с2 %
    21:00Ясно и безоблачно+23°C32 %749 мм2.5 м/с2 %
  • 14июля
    Воскресенье
    +19°
    +33°
    Ясно и безоблачно
    ВремяПогодаТемператураВлажностьДавлениеВетер, м/сВероятность осадков
    00:00Ясно и безоблачно+21°C41 %750 мм2.4 м/с2 %
    03:00Ясно и безоблачно+18°C51 %750 мм1.8 м/с2 %
    06:00Ясно и безоблачно+19°C50 %750 мм2.0 м/с2 %
    09:00Ясно и безоблачно+26°C32 %750 мм3.4 м/с2 %
    12:00Ясно и безоблачно+30°C26 %750 мм4.8 м/с2 %
    15:00Ясно и безоблачно+33°C22 %749 мм4.6 м/с2 %
    18:00Ясно и безоблачно+32°C21 %748 мм4.5 м/с2 %
    21:00Ясно и безоблачно+25°C29 %749 мм2.3 м/с2 %
  • 15июля
    Понедельник
    +22°
    +36°
    Практически безоблачно
    ВремяПогодаТемператураВлажностьДавлениеВетер, м/сВероятность осадков
    00:00Ясно и безоблачно+23°C34 %749 мм2.1 м/с2 %
    03:00Ясно и безоблачно+20°C42 %749 мм1.7 м/с2 %
    06:00Ясно и безоблачно+22°C43 %749 мм1.3 м/с2 %
    09:00Ясно и безоблачно+30°C29 %750 мм2.2 м/с2 %
    12:00Ясно и безоблачно+34°C30 %749 мм3.4 м/с2 %
    15:00Практически безоблачно+36°C29 %748 мм2.8 м/с9 %
    18:00Облачно с прояснениями+35°C42 %749 мм3.7 м/с30 %
    21:00Практически безоблачно+27°C53 %749 мм1.4 м/с7 %
  • 16июля
    Вторник
    +22°
    +36°
    Практически безоблачно
    ВремяПогодаТемператураВлажностьДавлениеВетер, м/сВероятность осадков
    00:00Ясно и безоблачно+26°C61 %749 мм2.3 м/с2 %
    03:00Ясно и безоблачно+23°C73 %749 мм1.4 м/с2 %
    06:00Ясно и безоблачно+24°C72 %749 мм1.8 м/с2 %
    09:00Ясно и безоблачно+31°C49 %750 мм2.4 м/с2 %
    12:00Практически безоблачно+34°C39 %750 мм3.4 м/с2 %
    15:00Практически безоблачно+36°C34 %749 мм3.7 м/с7 %
    18:00Небольшая облачность, возможен дождь с грозой+33°C38 %749 мм3.9 м/с22 %
    21:00Практически безоблачно+28°C46 %749 мм2.4 м/с6 %
  • 17июля
    Среда
    +22°
    +37°
    Практически безоблачно
    ВремяПогодаТемператураВлажностьДавлениеВетер, м/сВероятность осадков
    00:00Ясно и безоблачно+26°C56 %749 мм2.8 м/с2 %
    03:00Ясно и безоблачно+23°C65 %749 мм2.2 м/с2 %
    06:00Ясно и безоблачно+24°C68 %750 мм2.2 м/с2 %
    09:00Ясно и безоблачно+31°C44 %750 мм3.3 м/с2 %
    12:00Ясно и безоблачно+34°C34 %750 мм3.6 м/с2 %
    15:00Практически безоблачно+36°C29 %750 мм2.9 м/с2 %
    18:00Практически безоблачно+36°C27 %749 мм3.6 м/с7 %
    21:00Ясно и безоблачно+29°C36 %749 мм2.0 м/с2 %
Мы используем cookies
Соглашаюсь